sensor_id;sensor_type;location;lat;lon;timestamp;temperature;humidity
8248;DHT22;4164;49.844;8.830;2023-02-12T00:00:47;6.00;99.90
8248;DHT22;4164;49.844;8.830;2023-02-12T00:03:13;6.00;99.90
8248;DHT22;4164;49.844;8.830;2023-02-12T00:05:39;5.90;99.90
8248;DHT22;4164;49.844;8.830;2023-02-12T00:08:06;5.90;99.90
8248;DHT22;4164;49.844;8.830;2023-02-12T00:10:32;5.80;99.90
8248;DHT22;4164;49.844;8.830;2023-02-12T00:12:58;5.90;99.90
8248;DHT22;4164;49.844;8.830;2023-02-12T00:15:23;5.80;99.90
8248;DHT22;4164;49.844;8.830;2023-02-12T00:17:49;5.80;99.90
8248;DHT22;4164;49.844;8.830;2023-02-12T00:20:14;5.90;99.90
8248;DHT22;4164;49.844;8.830;2023-02-12T00:22:40;5.70;99.90
8248;DHT22;4164;49.844;8.830;2023-02-12T00:25:06;5.60;99.90
8248;DHT22;4164;49.844;8.830;2023-02-12T00:27:33;5.60;99.90
8248;DHT22;4164;49.844;8.830;2023-02-12T00:29:58;5.70;99.90
8248;DHT22;4164;49.844;8.830;2023-02-12T00:32:27;5.90;99.90
8248;DHT22;4164;49.844;8.830;2023-02-12T00:34:53;6.20;99.90
8248;DHT22;4164;49.844;8.830;2023-02-12T00:37:18;6.30;99.90
8248;DHT22;4164;49.844;8.830;2023-02-12T00:39:44;6.20;99.90
8248;DHT22;4164;49.844;8.830;2023-02-12T00:42:09;6.20;99.90
8248;DHT22;4164;49.844;8.830;2023-02-12T00:44:35;6.10;99.90
8248;DHT22;4164;49.844;8.830;2023-02-12T00:47:01;5.90;99.90
8248;DHT22;4164;49.844;8.830;2023-02-12T00:49:29;6.00;99.90
8248;DHT22;4164;49.844;8.830;2023-02-12T00:52:02;6.10;99.90
8248;DHT22;4164;49.844;8.830;2023-02-12T00:54:29;5.70;99.90
8248;DHT22;4164;49.844;8.830;2023-02-12T00:56:55;5.60;99.90
8248;DHT22;4164;49.844;8.830;2023-02-12T00:59:22;5.60;99.90
8248;DHT22;4164;49.844;8.830;2023-02-12T01:01:52;5.80;99.90
8248;DHT22;4164;49.844;8.830;2023-02-12T01:04:18;5.80;99.90
8248;DHT22;4164;49.844;8.830;2023-02-12T01:06:44;5.80;99.90
8248;DHT22;4164;49.844;8.830;2023-02-12T01:09:10;5.70;99.90
8248;DHT22;4164;49.844;8.830;2023-02-12T01:11:36;5.80;99.90
8248;DHT22;4164;49.844;8.830;2023-02-12T01:14:02;5.80;99.90
8248;DHT22;4164;49.844;8.830;2023-02-12T01:16:28;5.70;99.90
8248;DHT22;4164;49.844;8.830;2023-02-12T01:18:55;6.10;99.90
8248;DHT22;4164;49.844;8.830;2023-02-12T01:21:29;6.20;99.90
8248;DHT22;4164;49.844;8.830;2023-02-12T01:23:56;6.30;99.90
8248;DHT22;4164;49.844;8.830;2023-02-12T01:26:22;6.20;99.90
8248;DHT22;4164;49.844;8.830;2023-02-12T01:28:51;6.10;99.90
8248;DHT22;4164;49.844;8.830;2023-02-12T01:31:22;6.10;99.90
8248;DHT22;4164;49.844;8.830;2023-02-12T01:33:49;6.10;99.90
8248;DHT22;4164;49.844;8.830;2023-02-12T01:36:15;6.10;99.90
8248;DHT22;4164;49.844;8.830;2023-02-12T01:38:41;6.10;99.90
8248;DHT22;4164;49.844;8.830;2023-02-12T01:41:19;6.30;99.90
8248;DHT22;4164;49.844;8.830;2023-02-12T01:43:45;6.30;99.90
8248;DHT22;4164;49.844;8.830;2023-02-12T01:46:12;6.10;99.90
8248;DHT22;4164;49.844;8.830;2023-02-12T01:48:44;6.10;99.90
8248;DHT22;4164;49.844;8.830;2023-02-12T01:51:15;6.20;99.90
8248;DHT22;4164;49.844;8.830;2023-02-12T01:53:48;6.10;99.90
8248;DHT22;4164;49.844;8.830;2023-02-12T01:56:15;6.00;99.90
8248;DHT22;4164;49.844;8.830;2023-02-12T01:58:43;6.00;99.90
8248;DHT22;4164;49.844;8.830;2023-02-12T02:01:18;6.00;99.90
8248;DHT22;4164;49.844;8.830;2023-02-12T02:03:47;6.00;99.90
8248;DHT22;4164;49.844;8.830;2023-02-12T02:06:21;6.00;99.90
8248;DHT22;4164;49.844;8.830;2023-02-12T02:08:50;5.80;99.90
8248;DHT22;4164;49.844;8.830;2023-02-12T02:11:15;5.90;99.90
8248;DHT22;4164;49.844;8.830;2023-02-12T02:14:00;5.90;99.90
8248;DHT22;4164;49.844;8.830;2023-02-12T02:16:59;5.90;99.90
8248;DHT22;4164;49.844;8.830;2023-02-12T02:25:35;5.90;99.90
8248;DHT22;4164;49.844;8.830;2023-02-12T02:36:59;5.90;99.90
8248;DHT22;4164;49.844;8.830;2023-02-12T02:39:36;5.90;99.90
8248;DHT22;4164;49.844;8.830;2023-02-12T02:42:28;5.90;99.90
8248;DHT22;4164;49.844;8.830;2023-02-12T02:45:12;5.90;99.90
8248;DHT22;4164;49.844;8.830;2023-02-12T02:47:47;5.90;99.90
8248;DHT22;4164;49.844;8.830;2023-02-12T02:50:18;5.90;99.90
8248;DHT22;4164;49.844;8.830;2023-02-12T02:55:29;5.80;99.90
8248;DHT22;4164;49.844;8.830;2023-02-12T02:58:00;5.80;99.90
8248;DHT22;4164;49.844;8.830;2023-02-12T03:00:34;5.80;99.90
8248;DHT22;4164;49.844;8.830;2023-02-12T03:03:10;5.90;99.90
8248;DHT22;4164;49.844;8.830;2023-02-12T03:05:42;5.90;99.90
8248;DHT22;4164;49.844;8.830;2023-02-12T03:08:32;6.00;99.90
8248;DHT22;4164;49.844;8.830;2023-02-12T03:11:12;6.00;99.90
8248;DHT22;4164;49.844;8.830;2023-02-12T03:13:47;5.90;99.90
8248;DHT22;4164;49.844;8.830;2023-02-12T03:16:17;5.80;99.90
8248;DHT22;4164;49.844;8.830;2023-02-12T03:18:50;5.80;99.90
8248;DHT22;4164;49.844;8.830;2023-02-12T03:21:19;5.70;99.90
8248;DHT22;4164;49.844;8.830;2023-02-12T03:24:03;5.70;99.90
8248;DHT22;4164;49.844;8.830;2023-02-12T03:26:39;5.70;99.90
8248;DHT22;4164;49.844;8.830;2023-02-12T03:29:07;5.90;99.90
8248;DHT22;4164;49.844;8.830;2023-02-12T03:31:45;6.00;99.90
8248;DHT22;4164;49.844;8.830;2023-02-12T03:37:00;6.30;99.90
8248;DHT22;4164;49.844;8.830;2023-02-12T03:42:20;6.30;99.90
8248;DHT22;4164;49.844;8.830;2023-02-12T03:45:07;6.40;99.90
8248;DHT22;4164;49.844;8.830;2023-02-12T03:47:50;6.40;99.90
8248;DHT22;4164;49.844;8.830;2023-02-12T03:53:10;6.10;99.90
8248;DHT22;4164;49.844;8.830;2023-02-12T03:55:40;6.10;99.90
8248;DHT22;4164;49.844;8.830;2023-02-12T03:58:08;6.00;99.90
8248;DHT22;4164;49.844;8.830;2023-02-12T04:00:37;6.00;99.90
8248;DHT22;4164;49.844;8.830;2023-02-12T04:03:04;5.90;99.90
8248;DHT22;4164;49.844;8.830;2023-02-12T04:05:30;6.00;99.90
8248;DHT22;4164;49.844;8.830;2023-02-12T04:07:57;6.00;99.90
8248;DHT22;4164;49.844;8.830;2023-02-12T04:10:41;5.90;99.90
8248;DHT22;4164;49.844;8.830;2023-02-12T04:16:12;6.00;99.90
8248;DHT22;4164;49.844;8.830;2023-02-12T04:18:44;6.00;99.90
8248;DHT22;4164;49.844;8.830;2023-02-12T04:21:25;6.00;99.90
8248;DHT22;4164;49.844;8.830;2023-02-12T04:24:18;6.00;99.90
8248;DHT22;4164;49.844;8.830;2023-02-12T04:27:25;6.00;99.90
8248;DHT22;4164;49.844;8.830;2023-02-12T04:29:58;6.10;99.90
8248;DHT22;4164;49.844;8.830;2023-02-12T04:32:44;6.20;99.90
8248;DHT22;4164;49.844;8.830;2023-02-12T04:40:34;6.40;99.90
8248;DHT22;4164;49.844;8.830;2023-02-12T04:43:00;6.30;99.90
8248;DHT22;4164;49.844;8.830;2023-02-12T04:45:29;6.20;99.90
8248;DHT22;4164;49.844;8.830;2023-02-12T04:47:55;6.00;99.90
8248;DHT22;4164;49.844;8.830;2023-02-12T04:50:20;6.20;99.90
8248;DHT22;4164;49.844;8.830;2023-02-12T04:52:46;6.20;99.90
8248;DHT22;4164;49.844;8.830;2023-02-12T04:55:12;6.20;99.90
8248;DHT22;4164;49.844;8.830;2023-02-12T04:57:37;6.20;99.90
8248;DHT22;4164;49.844;8.830;2023-02-12T05:00:07;6.00;99.90
8248;DHT22;4164;49.844;8.830;2023-02-12T05:02:34;5.90;99.90
8248;DHT22;4164;49.844;8.830;2023-02-12T05:05:00;6.00;99.90
8248;DHT22;4164;49.844;8.830;2023-02-12T05:07:25;6.00;99.90
8248;DHT22;4164;49.844;8.830;2023-02-12T05:09:51;6.10;99.90
8248;DHT22;4164;49.844;8.830;2023-02-12T05:12:20;6.10;99.90
8248;DHT22;4164;49.844;8.830;2023-02-12T05:14:45;6.10;99.90
8248;DHT22;4164;49.844;8.830;2023-02-12T05:17:11;6.00;99.90
8248;DHT22;4164;49.844;8.830;2023-02-12T05:19:36;5.80;99.90
8248;DHT22;4164;49.844;8.830;2023-02-12T05:22:02;5.80;99.90
8248;DHT22;4164;49.844;8.830;2023-02-12T05:24:27;6.10;99.90
8248;DHT22;4164;49.844;8.830;2023-02-12T05:26:53;6.10;99.90
8248;DHT22;4164;49.844;8.830;2023-02-12T05:29:18;6.10;99.90
8248;DHT22;4164;49.844;8.830;2023-02-12T05:31:44;6.10;99.90
8248;DHT22;4164;49.844;8.830;2023-02-12T05:34:11;6.10;99.90
8248;DHT22;4164;49.844;8.830;2023-02-12T05:36:37;6.10;99.90
8248;DHT22;4164;49.844;8.830;2023-02-12T05:39:04;6.10;99.90
8248;DHT22;4164;49.844;8.830;2023-02-12T05:41:33;6.10;99.90
8248;DHT22;4164;49.844;8.830;2023-02-12T05:44:04;6.10;99.90
8248;DHT22;4164;49.844;8.830;2023-02-12T05:46:30;6.10;99.90
8248;DHT22;4164;49.844;8.830;2023-02-12T05:48:56;5.90;99.90
8248;DHT22;4164;49.844;8.830;2023-02-12T05:51:24;5.80;99.90
8248;DHT22;4164;49.844;8.830;2023-02-12T05:53:51;5.90;99.90
8248;DHT22;4164;49.844;8.830;2023-02-12T05:56:29;5.90;99.90
8248;DHT22;4164;49.844;8.830;2023-02-12T05:59:06;5.90;99.90
8248;DHT22;4164;49.844;8.830;2023-02-12T06:01:38;6.00;99.90
8248;DHT22;4164;49.844;8.830;2023-02-12T06:04:09;6.00;99.90
8248;DHT22;4164;49.844;8.830;2023-02-12T06:06:36;6.10;99.90
8248;DHT22;4164;49.844;8.830;2023-02-12T06:09:02;6.00;99.90
8248;DHT22;4164;49.844;8.830;2023-02-12T06:11:28;6.00;99.90
8248;DHT22;4164;49.844;8.830;2023-02-12T06:13:53;6.10;99.90
8248;DHT22;4164;49.844;8.830;2023-02-12T06:18:47;5.70;99.90
8248;DHT22;4164;49.844;8.830;2023-02-12T06:21:13;5.50;99.90
8248;DHT22;4164;49.844;8.830;2023-02-12T06:23:39;5.50;99.90
8248;DHT22;4164;49.844;8.830;2023-02-12T06:26:05;5.80;99.90
8248;DHT22;4164;49.844;8.830;2023-02-12T06:28:30;6.00;99.90
8248;DHT22;4164;49.844;8.830;2023-02-12T06:30:56;5.70;99.90
8248;DHT22;4164;49.844;8.830;2023-02-12T06:33:21;5.70;99.90
8248;DHT22;4164;49.844;8.830;2023-02-12T06:35:47;5.50;99.90
8248;DHT22;4164;49.844;8.830;2023-02-12T06:38:12;5.60;99.90
8248;DHT22;4164;49.844;8.830;2023-02-12T06:40:38;5.80;99.90
8248;DHT22;4164;49.844;8.830;2023-02-12T06:43:03;5.70;99.90
8248;DHT22;4164;49.844;8.830;2023-02-12T06:45:29;5.70;99.90
8248;DHT22;4164;49.844;8.830;2023-02-12T06:47:55;5.80;99.90
8248;DHT22;4164;49.844;8.830;2023-02-12T06:50:20;5.60;99.90
8248;DHT22;4164;49.844;8.830;2023-02-12T06:52:46;5.50;99.90
8248;DHT22;4164;49.844;8.830;2023-02-12T06:55:11;5.60;99.90
8248;DHT22;4164;49.844;8.830;2023-02-12T06:57:37;5.80;99.90
8248;DHT22;4164;49.844;8.830;2023-02-12T07:00:03;5.70;99.90
8248;DHT22;4164;49.844;8.830;2023-02-12T07:02:29;5.60;99.90
8248;DHT22;4164;49.844;8.830;2023-02-12T07:04:54;5.50;99.90
8248;DHT22;4164;49.844;8.830;2023-02-12T07:07:20;5.60;99.90
8248;DHT22;4164;49.844;8.830;2023-02-12T07:09:45;5.80;99.90
8248;DHT22;4164;49.844;8.830;2023-02-12T07:12:11;5.60;99.90
8248;DHT22;4164;49.844;8.830;2023-02-12T07:14:36;5.60;99.90
8248;DHT22;4164;49.844;8.830;2023-02-12T07:17:02;5.70;99.90
8248;DHT22;4164;49.844;8.830;2023-02-12T07:19:29;5.60;99.90
8248;DHT22;4164;49.844;8.830;2023-02-12T07:21:55;5.70;99.90
8248;DHT22;4164;49.844;8.830;2023-02-12T07:24:21;5.70;99.90
8248;DHT22;4164;49.844;8.830;2023-02-12T07:26:47;5.60;99.90
8248;DHT22;4164;49.844;8.830;2023-02-12T07:29:13;6.00;99.90
8248;DHT22;4164;49.844;8.830;2023-02-12T07:31:40;6.00;99.90
8248;DHT22;4164;49.844;8.830;2023-02-12T07:34:05;5.80;99.90
8248;DHT22;4164;49.844;8.830;2023-02-12T07:36:32;5.90;99.90
8248;DHT22;4164;49.844;8.830;2023-02-12T07:38:58;5.80;99.90
8248;DHT22;4164;49.844;8.830;2023-02-12T07:41:26;6.00;99.90
8248;DHT22;4164;49.844;8.830;2023-02-12T07:43:55;5.80;99.90
8248;DHT22;4164;49.844;8.830;2023-02-12T07:46:23;5.80;99.90
8248;DHT22;4164;49.844;8.830;2023-02-12T07:48:52;5.70;99.90
8248;DHT22;4164;49.844;8.830;2023-02-12T07:51:18;5.70;99.90
8248;DHT22;4164;49.844;8.830;2023-02-12T07:53:43;5.80;99.90
8248;DHT22;4164;49.844;8.830;2023-02-12T07:56:20;5.80;99.90
8248;DHT22;4164;49.844;8.830;2023-02-12T07:58:51;6.00;99.90
8248;DHT22;4164;49.844;8.830;2023-02-12T08:01:19;6.20;99.90
8248;DHT22;4164;49.844;8.830;2023-02-12T08:03:46;6.30;99.90
8248;DHT22;4164;49.844;8.830;2023-02-12T08:06:18;6.20;99.90
8248;DHT22;4164;49.844;8.830;2023-02-12T08:08:45;6.50;99.90
8248;DHT22;4164;49.844;8.830;2023-02-12T08:11:12;6.50;99.90
8248;DHT22;4164;49.844;8.830;2023-02-12T08:13:38;6.50;99.90
8248;DHT22;4164;49.844;8.830;2023-02-12T08:16:15;6.50;99.90
8248;DHT22;4164;49.844;8.830;2023-02-12T08:18:41;6.60;99.90
8248;DHT22;4164;49.844;8.830;2023-02-12T08:21:12;6.90;99.90
8248;DHT22;4164;49.844;8.830;2023-02-12T08:23:38;6.90;99.90
8248;DHT22;4164;49.844;8.830;2023-02-12T08:26:09;7.20;99.90
8248;DHT22;4164;49.844;8.830;2023-02-12T08:28:37;7.10;99.90
8248;DHT22;4164;49.844;8.830;2023-02-12T08:31:04;6.80;99.90
8248;DHT22;4164;49.844;8.830;2023-02-12T08:33:31;6.80;99.90
8248;DHT22;4164;49.844;8.830;2023-02-12T08:36:05;7.10;99.90
8248;DHT22;4164;49.844;8.830;2023-02-12T08:38:32;7.00;99.90
8248;DHT22;4164;49.844;8.830;2023-02-12T08:41:06;7.10;99.90
8248;DHT22;4164;49.844;8.830;2023-02-12T08:43:33;7.10;99.90
8248;DHT22;4164;49.844;8.830;2023-02-12T08:46:04;7.10;99.90
8248;DHT22;4164;49.844;8.830;2023-02-12T08:48:30;7.20;99.90
8248;DHT22;4164;49.844;8.830;2023-02-12T08:51:03;7.40;99.90
8248;DHT22;4164;49.844;8.830;2023-02-12T08:53:28;7.30;99.90
8248;DHT22;4164;49.844;8.830;2023-02-12T08:55:54;7.30;99.90
8248;DHT22;4164;49.844;8.830;2023-02-12T08:58:19;7.50;99.90
8248;DHT22;4164;49.844;8.830;2023-02-12T09:00:45;7.50;99.90
8248;DHT22;4164;49.844;8.830;2023-02-12T09:03:10;7.70;99.90
8248;DHT22;4164;49.844;8.830;2023-02-12T09:05:40;7.60;99.90
8248;DHT22;4164;49.844;8.830;2023-02-12T09:08:06;7.70;99.90
8248;DHT22;4164;49.844;8.830;2023-02-12T09:10:32;7.80;99.90
8248;DHT22;4164;49.844;8.830;2023-02-12T09:12:58;7.90;99.90
8248;DHT22;4164;49.844;8.830;2023-02-12T09:15:24;8.00;99.90
8248;DHT22;4164;49.844;8.830;2023-02-12T09:17:49;8.30;99.90
8248;DHT22;4164;49.844;8.830;2023-02-12T09:20:15;8.40;99.90
8248;DHT22;4164;49.844;8.830;2023-02-12T09:22:40;8.70;99.90
8248;DHT22;4164;49.844;8.830;2023-02-12T09:25:06;8.80;99.90
8248;DHT22;4164;49.844;8.830;2023-02-12T09:27:31;8.90;99.90
8248;DHT22;4164;49.844;8.830;2023-02-12T09:29:57;9.20;99.90
8248;DHT22;4164;49.844;8.830;2023-02-12T09:32:22;9.20;99.90
8248;DHT22;4164;49.844;8.830;2023-02-12T09:34:48;9.10;99.90
8248;DHT22;4164;49.844;8.830;2023-02-12T09:37:13;9.10;99.90
8248;DHT22;4164;49.844;8.830;2023-02-12T09:39:39;9.20;99.90
8248;DHT22;4164;49.844;8.830;2023-02-12T09:42:30;9.20;99.90
8248;DHT22;4164;49.844;8.830;2023-02-12T09:45:16;9.30;99.90
8248;DHT22;4164;49.844;8.830;2023-02-12T09:47:49;9.20;99.90
8248;DHT22;4164;49.844;8.830;2023-02-12T09:52:53;9.50;99.90
8248;DHT22;4164;49.844;8.830;2023-02-12T09:55:28;9.50;99.90
8248;DHT22;4164;49.844;8.830;2023-02-12T09:57:54;9.50;99.90
8248;DHT22;4164;49.844;8.830;2023-02-12T10:00:28;9.60;99.90
8248;DHT22;4164;49.844;8.830;2023-02-12T10:02:59;9.60;99.90
8248;DHT22;4164;49.844;8.830;2023-02-12T10:05:31;9.80;99.90
8248;DHT22;4164;49.844;8.830;2023-02-12T10:08:34;9.70;99.90
8248;DHT22;4164;49.844;8.830;2023-02-12T10:14:07;10.30;99.90
8248;DHT22;4164;49.844;8.830;2023-02-12T10:24:43;11.30;99.90
8248;DHT22;4164;49.844;8.830;2023-02-12T10:27:15;11.10;99.90
8248;DHT22;4164;49.844;8.830;2023-02-12T10:29:43;10.70;99.90
8248;DHT22;4164;49.844;8.830;2023-02-12T10:32:24;10.70;99.90
8248;DHT22;4164;49.844;8.830;2023-02-12T10:34:51;10.80;99.90
8248;DHT22;4164;49.844;8.830;2023-02-12T10:37:36;10.50;99.90
8248;DHT22;4164;49.844;8.830;2023-02-12T10:40:22;11.10;99.90
8248;DHT22;4164;49.844;8.830;2023-02-12T10:42:50;11.50;99.90
8248;DHT22;4164;49.844;8.830;2023-02-12T10:45:20;11.70;99.90
8248;DHT22;4164;49.844;8.830;2023-02-12T10:47:51;11.30;99.90
8248;DHT22;4164;49.844;8.830;2023-02-12T10:50:27;11.30;99.90
8248;DHT22;4164;49.844;8.830;2023-02-12T10:52:55;11.40;99.90
8248;DHT22;4164;49.844;8.830;2023-02-12T10:55:33;10.90;99.90
8248;DHT22;4164;49.844;8.830;2023-02-12T10:58:00;10.80;99.90
8248;DHT22;4164;49.844;8.830;2023-02-12T11:00:34;11.00;99.90
8248;DHT22;4164;49.844;8.830;2023-02-12T11:05:43;11.20;99.90
8248;DHT22;4164;49.844;8.830;2023-02-12T11:08:29;11.40;99.90
8248;DHT22;4164;49.844;8.830;2023-02-12T11:11:12;12.00;99.90
8248;DHT22;4164;49.844;8.830;2023-02-12T11:13:40;13.00;99.90
8248;DHT22;4164;49.844;8.830;2023-02-12T11:16:09;12.90;99.90
8248;DHT22;4164;49.844;8.830;2023-02-12T11:18:35;12.80;99.90
8248;DHT22;4164;49.844;8.830;2023-02-12T11:21:07;12.90;99.90
8248;DHT22;4164;49.844;8.830;2023-02-12T11:29:21;12.70;99.90
8248;DHT22;4164;49.844;8.830;2023-02-12T11:32:01;12.30;99.90
8248;DHT22;4164;49.844;8.830;2023-02-12T11:34:27;12.30;99.90
8248;DHT22;4164;49.844;8.830;2023-02-12T11:36:55;13.90;99.90
8248;DHT22;4164;49.844;8.830;2023-02-12T11:39:26;17.70;99.90
8248;DHT22;4164;49.844;8.830;2023-02-12T11:41:55;18.90;99.90
8248;DHT22;4164;49.844;8.830;2023-02-12T11:44:35;17.60;99.40
8248;DHT22;4164;49.844;8.830;2023-02-12T11:47:05;18.00;98.80
8248;DHT22;4164;49.844;8.830;2023-02-12T11:49:38;17.40;98.50
8248;DHT22;4164;49.844;8.830;2023-02-12T11:52:06;17.70;99.10
8248;DHT22;4164;49.844;8.830;2023-02-12T11:54:41;17.90;97.40
8248;DHT22;4164;49.844;8.830;2023-02-12T12:00:10;17.80;97.50
8248;DHT22;4164;49.844;8.830;2023-02-12T12:02:37;18.90;96.70
8248;DHT22;4164;49.844;8.830;2023-02-12T12:05:28;21.00;92.70
8248;DHT22;4164;49.844;8.830;2023-02-12T12:08:02;23.40;87.00
8248;DHT22;4164;49.844;8.830;2023-02-12T12:10:51;22.30;78.90
8248;DHT22;4164;49.844;8.830;2023-02-12T12:13:26;19.00;84.20
8248;DHT22;4164;49.844;8.830;2023-02-12T12:16:03;19.00;88.60
8248;DHT22;4164;49.844;8.830;2023-02-12T12:18:57;18.80;87.60
8248;DHT22;4164;49.844;8.830;2023-02-12T12:24:48;17.20;91.20
8248;DHT22;4164;49.844;8.830;2023-02-12T12:31:24;16.40;94.10
8248;DHT22;4164;49.844;8.830;2023-02-12T12:38:46;19.80;88.10
8248;DHT22;4164;49.844;8.830;2023-02-12T12:41:26;17.90;89.10
8248;DHT22;4164;49.844;8.830;2023-02-12T12:44:20;15.50;91.50
8248;DHT22;4164;49.844;8.830;2023-02-12T12:46:59;13.80;94.20
8248;DHT22;4164;49.844;8.830;2023-02-12T12:55:22;12.30;99.90
8248;DHT22;4164;49.844;8.830;2023-02-12T13:01:03;12.30;99.90
8248;DHT22;4164;49.844;8.830;2023-02-12T13:09:39;16.00;99.50
8248;DHT22;4164;49.844;8.830;2023-02-12T13:12:27;18.50;95.50
8248;DHT22;4164;49.844;8.830;2023-02-12T13:17:59;21.40;86.60
8248;DHT22;4164;49.844;8.830;2023-02-12T13:20:48;21.00;84.10
8248;DHT22;4164;49.844;8.830;2023-02-12T13:23:30;20.40;83.40
8248;DHT22;4164;49.844;8.830;2023-02-12T13:28:39;19.70;84.50
8248;DHT22;4164;49.844;8.830;2023-02-12T13:31:08;19.40;84.50
8248;DHT22;4164;49.844;8.830;2023-02-12T13:33:44;18.50;86.00
8248;DHT22;4164;49.844;8.830;2023-02-12T13:36:13;18.30;88.30
8248;DHT22;4164;49.844;8.830;2023-02-12T13:38:47;18.10;86.70
8248;DHT22;4164;49.844;8.830;2023-02-12T13:41:15;17.60;88.10
8248;DHT22;4164;49.844;8.830;2023-02-12T13:46:50;16.80;90.20
8248;DHT22;4164;49.844;8.830;2023-02-12T13:52:18;15.30;91.70
8248;DHT22;4164;49.844;8.830;2023-02-12T14:01:12;13.50;97.10
8248;DHT22;4164;49.844;8.830;2023-02-12T14:03:39;13.50;97.90
8248;DHT22;4164;49.844;8.830;2023-02-12T14:06:19;13.40;97.80
8248;DHT22;4164;49.844;8.830;2023-02-12T14:08:50;13.20;97.60
8248;DHT22;4164;49.844;8.830;2023-02-12T14:11:18;13.10;98.40
8248;DHT22;4164;49.844;8.830;2023-02-12T14:13:50;13.30;98.60
8248;DHT22;4164;49.844;8.830;2023-02-12T14:16:35;13.10;99.30
8248;DHT22;4164;49.844;8.830;2023-02-12T14:27:03;13.00;99.90
8248;DHT22;4164;49.844;8.830;2023-02-12T14:29:30;12.60;99.90
8248;DHT22;4164;49.844;8.830;2023-02-12T14:31:55;12.40;99.90
8248;DHT22;4164;49.844;8.830;2023-02-12T14:36:49;12.20;99.90
8248;DHT22;4164;49.844;8.830;2023-02-12T14:39:32;12.20;99.90
8248;DHT22;4164;49.844;8.830;2023-02-12T14:44:47;11.90;99.90
8248;DHT22;4164;49.844;8.830;2023-02-12T14:49:53;11.90;99.90
8248;DHT22;4164;49.844;8.830;2023-02-12T14:52:26;12.00;99.90
8248;DHT22;4164;49.844;8.830;2023-02-12T14:54:59;11.90;99.90
8248;DHT22;4164;49.844;8.830;2023-02-12T14:57:37;11.70;99.90
8248;DHT22;4164;49.844;8.830;2023-02-12T15:02:32;11.60;99.90
8248;DHT22;4164;49.844;8.830;2023-02-12T15:05:05;11.60;99.90
8248;DHT22;4164;49.844;8.830;2023-02-12T15:07:40;11.60;99.90
8248;DHT22;4164;49.844;8.830;2023-02-12T15:10:16;11.70;99.90
8248;DHT22;4164;49.844;8.830;2023-02-12T15:15:49;11.50;99.90
8248;DHT22;4164;49.844;8.830;2023-02-12T15:18:44;11.30;99.90
8248;DHT22;4164;49.844;8.830;2023-02-12T15:21:26;11.20;99.90
8248;DHT22;4164;49.844;8.830;2023-02-12T15:24:02;11.20;99.90
8248;DHT22;4164;49.844;8.830;2023-02-12T15:26:30;11.20;99.90
8248;DHT22;4164;49.844;8.830;2023-02-12T15:28:57;11.10;99.90
8248;DHT22;4164;49.844;8.830;2023-02-12T15:31:28;11.10;99.90
8248;DHT22;4164;49.844;8.830;2023-02-12T15:33:58;11.00;99.90
8248;DHT22;4164;49.844;8.830;2023-02-12T15:36:27;10.80;99.90
8248;DHT22;4164;49.844;8.830;2023-02-12T15:38:59;10.70;99.90
8248;DHT22;4164;49.844;8.830;2023-02-12T15:41:35;10.60;99.90
8248;DHT22;4164;49.844;8.830;2023-02-12T15:44:15;10.60;99.90
8248;DHT22;4164;49.844;8.830;2023-02-12T15:49:23;10.40;99.90
8248;DHT22;4164;49.844;8.830;2023-02-12T15:51:50;10.30;99.90
8248;DHT22;4164;49.844;8.830;2023-02-12T15:54:17;10.30;99.90
8248;DHT22;4164;49.844;8.830;2023-02-12T15:56:44;10.10;99.90
8248;DHT22;4164;49.844;8.830;2023-02-12T15:59:19;10.00;99.90
8248;DHT22;4164;49.844;8.830;2023-02-12T16:01:53;9.90;99.90
8248;DHT22;4164;49.844;8.830;2023-02-12T16:04:19;9.70;99.90
8248;DHT22;4164;49.844;8.830;2023-02-12T16:06:44;9.60;99.90
8248;DHT22;4164;49.844;8.830;2023-02-12T16:09:17;9.60;99.90
8248;DHT22;4164;49.844;8.830;2023-02-12T16:11:45;9.50;99.90
8248;DHT22;4164;49.844;8.830;2023-02-12T16:14:27;9.40;99.90
8248;DHT22;4164;49.844;8.830;2023-02-12T16:16:55;9.40;99.90
8248;DHT22;4164;49.844;8.830;2023-02-12T16:21:54;9.50;99.90
8248;DHT22;4164;49.844;8.830;2023-02-12T16:24:33;9.50;99.90
8248;DHT22;4164;49.844;8.830;2023-02-12T16:29:45;9.50;99.90
8248;DHT22;4164;49.844;8.830;2023-02-12T16:32:41;9.50;99.90
8248;DHT22;4164;49.844;8.830;2023-02-12T16:50:42;9.20;99.90
8248;DHT22;4164;49.844;8.830;2023-02-12T16:55:51;9.80;99.90
8248;DHT22;4164;49.844;8.830;2023-02-12T16:58:16;9.20;99.90
8248;DHT22;4164;49.844;8.830;2023-02-12T17:00:42;9.30;99.90
8248;DHT22;4164;49.844;8.830;2023-02-12T17:03:14;9.30;99.90
8248;DHT22;4164;49.844;8.830;2023-02-12T17:05:40;9.20;99.90
8248;DHT22;4164;49.844;8.830;2023-02-12T17:08:13;9.10;99.90
8248;DHT22;4164;49.844;8.830;2023-02-12T17:10:40;9.00;99.90
8248;DHT22;4164;49.844;8.830;2023-02-12T17:13:05;8.90;99.90
8248;DHT22;4164;49.844;8.830;2023-02-12T17:15:48;8.80;99.90
8248;DHT22;4164;49.844;8.830;2023-02-12T17:18:14;8.80;99.90
8248;DHT22;4164;49.844;8.830;2023-02-12T17:20:40;8.80;99.90
8248;DHT22;4164;49.844;8.830;2023-02-12T17:23:06;8.80;99.90
8248;DHT22;4164;49.844;8.830;2023-02-12T17:25:34;8.80;99.90
8248;DHT22;4164;49.844;8.830;2023-02-12T17:28:00;8.80;99.90
8248;DHT22;4164;49.844;8.830;2023-02-12T17:30:26;8.70;99.90
8248;DHT22;4164;49.844;8.830;2023-02-12T17:32:53;8.80;99.90
8248;DHT22;4164;49.844;8.830;2023-02-12T17:35:19;8.80;99.90
8248;DHT22;4164;49.844;8.830;2023-02-12T17:37:44;8.60;99.90
8248;DHT22;4164;49.844;8.830;2023-02-12T17:40:12;8.60;99.90
8248;DHT22;4164;49.844;8.830;2023-02-12T17:42:38;8.50;99.90
8248;DHT22;4164;49.844;8.830;2023-02-12T17:45:03;8.50;99.90
8248;DHT22;4164;49.844;8.830;2023-02-12T17:47:29;8.60;99.90
8248;DHT22;4164;49.844;8.830;2023-02-12T17:49:56;8.60;99.90
8248;DHT22;4164;49.844;8.830;2023-02-12T17:52:21;8.60;99.90
8248;DHT22;4164;49.844;8.830;2023-02-12T17:54:47;8.60;99.90
8248;DHT22;4164;49.844;8.830;2023-02-12T17:57:12;8.60;99.90
8248;DHT22;4164;49.844;8.830;2023-02-12T17:59:39;8.60;99.90
8248;DHT22;4164;49.844;8.830;2023-02-12T18:02:06;8.60;99.90
8248;DHT22;4164;49.844;8.830;2023-02-12T18:04:32;8.60;99.90
8248;DHT22;4164;49.844;8.830;2023-02-12T18:07:03;8.60;99.90
8248;DHT22;4164;49.844;8.830;2023-02-12T18:09:29;8.50;99.90
8248;DHT22;4164;49.844;8.830;2023-02-12T18:11:55;8.60;99.90
8248;DHT22;4164;49.844;8.830;2023-02-12T18:14:20;8.50;99.90
8248;DHT22;4164;49.844;8.830;2023-02-12T18:16:46;8.50;99.90
8248;DHT22;4164;49.844;8.830;2023-02-12T18:19:12;8.40;99.90
8248;DHT22;4164;49.844;8.830;2023-02-12T18:21:38;8.40;99.90
8248;DHT22;4164;49.844;8.830;2023-02-12T18:24:04;8.40;99.90
8248;DHT22;4164;49.844;8.830;2023-02-12T18:26:29;8.30;99.90
8248;DHT22;4164;49.844;8.830;2023-02-12T18:28:56;8.30;99.90
8248;DHT22;4164;49.844;8.830;2023-02-12T18:31:23;8.30;99.90
8248;DHT22;4164;49.844;8.830;2023-02-12T18:33:49;8.30;99.90
8248;DHT22;4164;49.844;8.830;2023-02-12T18:36:16;8.40;99.90
8248;DHT22;4164;49.844;8.830;2023-02-12T18:38:43;8.40;99.90
8248;DHT22;4164;49.844;8.830;2023-02-12T18:41:14;8.50;99.90
8248;DHT22;4164;49.844;8.830;2023-02-12T18:43:40;8.50;99.90
8248;DHT22;4164;49.844;8.830;2023-02-12T18:46:09;8.40;99.90
8248;DHT22;4164;49.844;8.830;2023-02-12T18:48:35;8.30;99.90
8248;DHT22;4164;49.844;8.830;2023-02-12T18:51:02;8.40;99.90
8248;DHT22;4164;49.844;8.830;2023-02-12T18:53:28;8.40;99.90
8248;DHT22;4164;49.844;8.830;2023-02-12T18:55:54;8.30;99.90
8248;DHT22;4164;49.844;8.830;2023-02-12T18:58:19;8.20;99.90
8248;DHT22;4164;49.844;8.830;2023-02-12T19:00:45;8.30;99.90
8248;DHT22;4164;49.844;8.830;2023-02-12T19:03:10;8.30;99.90
8248;DHT22;4164;49.844;8.830;2023-02-12T19:05:36;8.30;99.90
8248;DHT22;4164;49.844;8.830;2023-02-12T19:08:01;8.30;99.90